createdAt,value
2022-12-16T00:01:27.869Z,42.93
2022-12-16T00:03:58.437Z,33.60
2022-12-16T00:06:31.178Z,33.00
2022-12-16T00:08:59.661Z,34.33
2022-12-16T00:11:27.349Z,36.33
2022-12-16T00:13:55.114Z,36.17
2022-12-16T00:16:22.654Z,33.80
2022-12-16T00:18:51.821Z,37.07
2022-12-16T00:21:19.637Z,40.40
2022-12-16T00:23:47.299Z,39.93
2022-12-16T00:26:14.714Z,39.90
2022-12-16T00:28:43.684Z,39.80
2022-12-16T00:31:10.906Z,30.63
2022-12-16T00:33:37.942Z,36.33
2022-12-16T00:36:05.378Z,37.43
2022-12-16T00:38:32.685Z,34.90
2022-12-16T00:41:00.040Z,37.93
2022-12-16T00:43:26.910Z,35.13
2022-12-16T00:45:53.853Z,33.60
2022-12-16T00:48:23.964Z,32.50
2022-12-16T00:50:55.209Z,34.57
2022-12-16T00:53:24.986Z,36.40
2022-12-16T00:56:01.838Z,31.20
2022-12-16T00:58:28.958Z,31.53
2022-12-16T01:00:55.914Z,30.63
2022-12-16T01:03:23.068Z,31.47
2022-12-16T01:05:50.479Z,31.67
2022-12-16T01:08:17.831Z,26.23
2022-12-16T01:10:52.381Z,42.83
2022-12-16T01:13:20.644Z,32.73
2022-12-16T01:15:47.583Z,27.03
2022-12-16T01:18:15.256Z,34.90
2022-12-16T01:20:42.542Z,28.83
2022-12-16T01:23:10.172Z,30.43
2022-12-16T01:25:37.511Z,39.33
2022-12-16T01:28:04.468Z,34.00
2022-12-16T01:30:31.695Z,39.60
2022-12-16T01:32:58.702Z,29.87
2022-12-16T01:35:52.191Z,37.53
2022-12-16T01:38:13.084Z,35.20
2022-12-16T01:40:39.961Z,34.20
2022-12-16T01:43:14.175Z,34.77
2022-12-16T01:45:41.204Z,32.73
2022-12-16T01:48:36.181Z,31.47
2022-12-16T01:51:14.318Z,30.53
2022-12-16T01:53:43.097Z,36.00
2022-12-16T01:56:13.755Z,37.27
2022-12-16T01:58:42.808Z,27.90
2022-12-16T02:01:10.292Z,28.77
2022-12-16T02:03:38.086Z,35.40
2022-12-16T02:06:07.343Z,27.30
2022-12-16T02:08:35.105Z,31.80
2022-12-16T02:11:15.362Z,29.87
2022-12-16T02:14:09.797Z,33.50
2022-12-16T02:16:47.723Z,29.60
2022-12-16T02:19:42.329Z,31.73
2022-12-16T02:22:45.847Z,31.87
2022-12-16T02:25:19.094Z,33.97
2022-12-16T02:28:02.711Z,28.60
2022-12-16T02:31:04.915Z,26.80
2022-12-16T02:33:43.702Z,34.88
2022-12-16T02:36:25.070Z,27.60
2022-12-16T02:39:23.223Z,29.53
2022-12-16T02:42:11.383Z,30.73
2022-12-16T02:44:57.511Z,33.57
2022-12-16T02:47:25.058Z,29.70
2022-12-16T02:49:55.062Z,30.37
2022-12-16T02:52:29.967Z,36.60
2022-12-16T02:55:02.156Z,38.00
2022-12-16T02:57:47.723Z,31.02
2022-12-16T03:00:21.289Z,34.77
2022-12-16T03:03:05.790Z,31.30
2022-12-16T03:05:38.321Z,26.70
2022-12-16T03:08:12.298Z,34.13
2022-12-16T03:10:50.025Z,37.07
2022-12-16T03:13:19.893Z,35.37
2022-12-16T03:15:49.952Z,28.07
2022-12-16T03:18:18.365Z,29.13
2022-12-16T03:21:04.068Z,33.63
2022-12-16T03:23:44.707Z,33.23
2022-12-16T03:26:32.331Z,28.53
2022-12-16T03:29:05.651Z,34.20
2022-12-16T03:31:52.257Z,29.33
2022-12-16T03:34:40.549Z,35.00
2022-12-16T03:37:13.281Z,38.77
2022-12-16T03:39:50.050Z,33.57
2022-12-16T03:42:17.048Z,35.57
2022-12-16T03:44:46.493Z,39.63
2022-12-16T03:47:18.356Z,39.07
2022-12-16T03:49:48.624Z,41.37
2022-12-16T03:52:16.273Z,41.30
2022-12-16T03:54:43.165Z,54.60
2022-12-16T03:57:15.011Z,100.53
2022-12-16T03:59:42.654Z,93.47
2022-12-16T04:02:09.754Z,81.57
2022-12-16T04:04:36.774Z,52.10
2022-12-16T04:07:22.189Z,140.70
2022-12-16T04:09:50.467Z,95.13
2022-12-16T04:12:36.810Z,57.33
2022-12-16T04:15:24.420Z,53.80
2022-12-16T04:18:10.189Z,52.83
2022-12-16T04:21:00.999Z,56.20
2022-12-16T04:23:48.293Z,47.20
2022-12-16T04:26:15.437Z,46.60
2022-12-16T04:28:42.389Z,45.13
2022-12-16T04:31:09.859Z,33.97
2022-12-16T04:33:55.719Z,46.53
2022-12-16T04:36:41.133Z,46.87
2022-12-16T04:39:27.033Z,36.97
2022-12-16T04:42:13.835Z,42.37
2022-12-16T04:44:59.695Z,30.40
2022-12-16T04:47:45.595Z,43.17
2022-12-16T04:50:30.886Z,40.03
2022-12-16T04:53:17.077Z,30.53
2022-12-16T04:56:04.709Z,36.37
2022-12-16T04:58:50.870Z,37.40
2022-12-16T05:01:36.778Z,41.03
2022-12-16T05:04:22.765Z,39.57
2022-12-16T05:07:07.946Z,35.13
2022-12-16T05:09:53.650Z,50.47
2022-12-16T05:12:39.527Z,34.17
2022-12-16T05:15:25.562Z,35.17
2022-12-16T05:18:11.371Z,45.10
2022-12-16T05:20:57.049Z,35.07
2022-12-16T05:23:42.236Z,35.17
2022-12-16T05:26:32.507Z,37.13
2022-12-16T05:29:17.810Z,33.23
2022-12-16T05:32:03.466Z,32.43
2022-12-16T05:34:49.225Z,29.03
2022-12-16T05:37:35.034Z,29.47
2022-12-16T05:40:21.060Z,34.33
2022-12-16T05:43:13.376Z,36.07
2022-12-16T05:46:02.523Z,35.93
2022-12-16T05:48:48.603Z,30.10
2022-12-16T05:51:34.423Z,40.77
2022-12-16T05:54:20.257Z,30.47
2022-12-16T05:57:05.293Z,37.40
2022-12-16T05:59:51.401Z,37.10
2022-12-16T06:02:38.404Z,29.47
2022-12-16T06:05:24.456Z,29.73
2022-12-16T06:08:11.774Z,28.93
2022-12-16T06:10:57.837Z,24.63
2022-12-16T06:13:42.994Z,20.80
2022-12-16T06:16:28.860Z,28.43
2022-12-16T06:19:14.032Z,26.33
2022-12-16T06:21:59.812Z,25.40
2022-12-16T06:24:45.020Z,28.17
2022-12-16T06:27:30.886Z,31.70
2022-12-16T06:30:16.700Z,32.00
2022-12-16T06:33:02.538Z,34.57
2022-12-16T06:35:47.852Z,27.67
2022-12-16T06:38:33.561Z,31.80
2022-12-16T06:41:18.769Z,30.40
2022-12-16T06:44:04.597Z,32.97
2022-12-16T06:46:50.516Z,33.97
2022-12-16T06:49:36.134Z,29.43
2022-12-16T06:52:22.094Z,45.03
2022-12-16T06:55:08.172Z,25.93
2022-12-16T06:57:54.022Z,34.00
2022-12-16T07:00:39.863Z,26.90
2022-12-16T07:03:25.193Z,30.67
2022-12-16T07:06:14.388Z,30.63
2022-12-16T07:08:59.533Z,36.67
2022-12-16T07:11:45.396Z,27.37
2022-12-16T07:14:31.476Z,28.43
2022-12-16T07:17:17.831Z,28.60
2022-12-16T07:20:03.837Z,27.60
2022-12-16T07:22:58.438Z,21.00
2022-12-16T07:25:48.398Z,23.57
2022-12-16T07:28:34.256Z,32.10
2022-12-16T07:31:20.242Z,27.07
2022-12-16T07:34:06.244Z,23.33
2022-12-16T07:36:52.048Z,24.93
2022-12-16T07:39:37.713Z,22.53
2022-12-16T07:42:23.737Z,25.60
2022-12-16T07:45:09.690Z,19.40
2022-12-16T07:47:55.810Z,20.47
2022-12-16T07:50:41.555Z,27.23
2022-12-16T07:53:31.320Z,24.20
2022-12-16T07:56:17.406Z,27.77
2022-12-16T07:59:03.654Z,22.43
2022-12-16T08:01:49.390Z,27.60
2022-12-16T08:04:35.380Z,32.63
2022-12-16T08:07:21.211Z,22.07
2022-12-16T08:10:06.533Z,20.77
2022-12-16T08:12:52.394Z,29.97
2022-12-16T08:15:38.171Z,24.40
2022-12-16T08:18:24.089Z,24.40
2022-12-16T08:21:09.473Z,25.60
2022-12-16T08:23:55.320Z,24.20
2022-12-16T08:26:41.529Z,24.17
2022-12-16T08:29:43.877Z,23.90
2022-12-16T08:32:41.998Z,20.07
2022-12-16T08:35:31.135Z,23.87
2022-12-16T08:38:16.638Z,27.17
2022-12-16T08:41:03.589Z,30.73
2022-12-16T08:43:52.084Z,22.93
2022-12-16T08:46:38.555Z,21.90
2022-12-16T08:49:24.294Z,25.63
2022-12-16T08:52:10.197Z,25.00
2022-12-16T08:54:56.110Z,21.53
2022-12-16T08:57:42.477Z,27.37
2022-12-16T09:00:29.379Z,36.23
2022-12-16T09:03:18.815Z,27.97
2022-12-16T09:06:04.318Z,20.27
2022-12-16T09:08:50.262Z,25.77
2022-12-16T09:11:36.068Z,31.80
2022-12-16T09:14:21.921Z,29.10
2022-12-16T09:17:07.769Z,30.17
2022-12-16T09:19:55.352Z,25.63
2022-12-16T09:22:41.390Z,24.67
2022-12-16T09:25:27.229Z,27.97
2022-12-16T09:28:12.527Z,23.53
2022-12-16T09:30:58.470Z,24.93
2022-12-16T09:33:44.530Z,23.70
2022-12-16T09:36:30.574Z,30.53
2022-12-16T09:39:15.933Z,31.70
2022-12-16T09:42:17.954Z,29.30
2022-12-16T09:45:30.079Z,32.90
2022-12-16T09:48:22.541Z,25.47
2022-12-16T09:51:32.757Z,23.25
2022-12-16T09:54:22.450Z,25.57
2022-12-16T09:57:08.038Z,28.83
2022-12-16T09:59:58.047Z,22.00
2022-12-16T10:02:45.280Z,24.57
2022-12-16T10:05:41.954Z,29.50
2022-12-16T10:08:55.380Z,23.00
2022-12-16T10:12:13.384Z,24.50
2022-12-16T10:15:31.618Z,22.27
2022-12-16T10:18:21.544Z,17.20
2022-12-16T10:21:12.393Z,23.17
2022-12-16T10:24:12.400Z,25.93
2022-12-16T10:27:33.671Z,22.17
2022-12-16T10:30:22.050Z,21.67
2022-12-16T10:33:10.480Z,29.17
2022-12-16T10:36:07.956Z,24.50
2022-12-16T10:39:20.121Z,22.83
2022-12-16T10:42:10.570Z,18.57
2022-12-16T10:45:13.821Z,15.23
2022-12-16T10:47:59.750Z,26.00
2022-12-16T10:50:46.265Z,27.10
2022-12-16T10:53:33.636Z,26.63
2022-12-16T10:56:58.489Z,23.23
2022-12-16T10:59:57.993Z,21.87
2022-12-16T11:02:51.095Z,25.73
2022-12-16T11:05:52.684Z,20.20
2022-12-16T11:08:49.461Z,19.83
2022-12-16T11:11:48.147Z,21.33
2022-12-16T11:14:50.308Z,27.53
2022-12-16T11:17:46.864Z,18.67
2022-12-16T11:20:40.384Z,19.97
2022-12-16T11:23:41.305Z,17.87
2022-12-16T11:26:38.508Z,28.53
2022-12-16T11:29:35.610Z,26.63
2022-12-16T11:32:44.184Z,22.63
2022-12-16T11:35:36.097Z,20.70
2022-12-16T11:38:39.163Z,26.30
2022-12-16T11:41:37.195Z,33.53
2022-12-16T11:44:23.811Z,23.60
2022-12-16T11:47:09.238Z,25.07
2022-12-16T11:49:54.902Z,22.37
2022-12-16T11:52:41.755Z,19.37
2022-12-16T11:56:06.476Z,17.50
2022-12-16T11:58:55.358Z,22.33
2022-12-16T12:02:14.333Z,24.43
2022-12-16T12:05:04.167Z,26.33
2022-12-16T12:08:16.339Z,24.57
2022-12-16T12:11:42.681Z,23.48
2022-12-16T12:15:01.236Z,21.17
2022-12-16T12:18:05.325Z,16.50
2022-12-16T12:21:04.980Z,20.40
2022-12-16T12:24:09.091Z,22.10
2022-12-16T12:27:03.689Z,19.33
2022-12-16T12:30:25.457Z,20.83
2022-12-16T12:33:36.725Z,12.77
2022-12-16T12:36:53.969Z,22.20
2022-12-16T12:40:04.934Z,20.27
2022-12-16T12:43:13.928Z,17.37
2022-12-16T12:46:13.165Z,33.87
2022-12-16T12:49:42.450Z,19.13
2022-12-16T12:52:57.384Z,22.10
2022-12-16T12:55:57.560Z,17.63
2022-12-16T12:58:52.142Z,19.43
2022-12-16T13:01:45.950Z,30.23
2022-12-16T13:04:41.196Z,21.77
2022-12-16T13:07:28.045Z,32.90
2022-12-16T13:10:55.764Z,15.73
2022-12-16T13:13:51.021Z,26.57
2022-12-16T13:17:02.818Z,31.10
2022-12-16T13:19:48.208Z,21.27
2022-12-16T13:22:47.665Z,27.73
2022-12-16T13:26:10.621Z,24.83
2022-12-16T13:29:01.869Z,21.95
2022-12-16T13:31:49.075Z,21.07
2022-12-16T13:34:34.899Z,25.27
2022-12-16T13:37:28.376Z,31.73
2022-12-16T13:40:41.215Z,16.77
2022-12-16T13:44:11.280Z,28.27
2022-12-16T13:47:12.130Z,33.40
2022-12-16T13:50:06.529Z,27.10
2022-12-16T13:53:16.648Z,14.17
2022-12-16T13:56:18.183Z,23.33
2022-12-16T13:59:18.827Z,30.47
2022-12-16T14:02:13.410Z,31.83
2022-12-16T14:05:04.143Z,12.37
2022-12-16T14:07:53.087Z,22.27
2022-12-16T14:10:52.660Z,18.90
2022-12-16T14:13:54.840Z,21.37
2022-12-16T14:17:10.238Z,20.40
2022-12-16T14:20:28.497Z,25.73
2022-12-16T14:23:58.636Z,19.77
2022-12-16T14:26:45.351Z,30.13
2022-12-16T14:29:46.649Z,23.93
2022-12-16T14:32:51.886Z,25.03
2022-12-16T14:35:44.462Z,27.87
2022-12-16T14:38:42.682Z,21.55
2022-12-16T14:41:46.758Z,27.27
2022-12-16T14:44:40.035Z,25.50
2022-12-16T14:47:32.345Z,23.73
2022-12-16T14:50:38.167Z,26.77
2022-12-16T14:53:42.218Z,27.17
2022-12-16T14:56:41.492Z,17.83
2022-12-16T14:59:38.651Z,26.83
2022-12-16T15:02:56.805Z,29.67
2022-12-16T15:05:52.066Z,38.23
2022-12-16T15:08:40.289Z,30.73
2022-12-16T15:11:31.128Z,27.13
2022-12-16T15:14:19.440Z,28.30
2022-12-16T15:17:10.075Z,24.87
2022-12-16T15:20:10.263Z,19.70
2022-12-16T15:22:56.958Z,22.40
2022-12-16T15:25:45.482Z,22.47
2022-12-16T15:28:59.449Z,26.57
2022-12-16T15:31:51.400Z,25.20
2022-12-16T15:35:09.573Z,19.75
2022-12-16T15:38:04.110Z,20.03
2022-12-16T15:40:53.403Z,18.77
2022-12-16T15:43:46.813Z,25.67
2022-12-16T15:46:47.117Z,15.07
2022-12-16T15:49:42.103Z,17.73
2022-12-16T15:52:52.595Z,18.63
2022-12-16T15:55:57.044Z,24.40
2022-12-16T15:58:49.168Z,21.53
2022-12-16T16:01:42.339Z,20.93
2022-12-16T16:04:45.796Z,19.50
2022-12-16T16:07:40.478Z,25.00
2022-12-16T16:10:42.802Z,18.67
2022-12-16T16:13:29.231Z,19.52
2022-12-16T16:16:15.235Z,23.17
2022-12-16T16:19:02.093Z,28.17
2022-12-16T16:21:48.682Z,27.73
2022-12-16T16:24:34.739Z,19.43
2022-12-16T16:27:22.171Z,30.33
2022-12-16T16:30:07.558Z,20.10
2022-12-16T16:32:53.524Z,24.47
2022-12-16T16:35:42.425Z,22.83
2022-12-16T16:38:31.765Z,19.70
2022-12-16T16:41:17.873Z,28.17
2022-12-16T16:44:04.008Z,26.10
2022-12-16T16:46:59.143Z,21.83
2022-12-16T16:49:48.790Z,18.10
2022-12-16T16:52:38.509Z,15.50
2022-12-16T16:55:25.884Z,20.03
2022-12-16T16:58:11.647Z,24.17
2022-12-16T17:00:57.614Z,22.80
2022-12-16T17:03:43.672Z,23.30
2022-12-16T17:06:30.012Z,25.00
2022-12-16T17:09:15.769Z,22.37
2022-12-16T17:12:01.860Z,22.83
2022-12-16T17:14:47.374Z,21.33
2022-12-16T17:17:33.239Z,23.07
2022-12-16T17:20:19.391Z,25.40
2022-12-16T17:23:07.868Z,26.70
2022-12-16T17:25:54.129Z,22.17
2022-12-16T17:28:42.060Z,18.67
2022-12-16T17:31:28.806Z,17.87
2022-12-16T17:34:14.777Z,28.83
2022-12-16T17:37:00.845Z,30.23
2022-12-16T17:39:46.713Z,22.90
2022-12-16T17:42:32.496Z,27.30
2022-12-16T17:45:18.535Z,27.60
2022-12-16T17:48:04.518Z,30.47
2022-12-16T17:50:50.168Z,32.47
2022-12-16T17:53:36.616Z,30.47
2022-12-16T17:56:24.463Z,34.63
2022-12-16T17:59:11.320Z,25.57
2022-12-16T18:01:57.457Z,29.63
2022-12-16T18:04:43.683Z,36.97
2022-12-16T18:07:29.512Z,31.30
2022-12-16T18:10:14.981Z,29.57
2022-12-16T18:13:05.398Z,28.07
2022-12-16T18:15:50.761Z,32.07
2022-12-16T18:18:39.333Z,40.67
2022-12-16T18:21:32.939Z,30.13
2022-12-16T18:24:18.771Z,30.53
2022-12-16T18:27:04.097Z,25.93
2022-12-16T18:29:49.691Z,33.27
2022-12-16T18:32:35.579Z,31.07
2022-12-16T18:35:21.930Z,29.07
2022-12-16T18:38:10.027Z,27.53
2022-12-16T18:40:58.182Z,23.07
2022-12-16T18:43:43.518Z,30.70
2022-12-16T18:46:29.393Z,31.20
2022-12-16T18:49:14.563Z,28.30
2022-12-16T18:52:00.357Z,36.40
2022-12-16T18:54:45.899Z,37.10
2022-12-16T18:57:36.419Z,29.60
2022-12-16T19:00:26.524Z,19.93
2022-12-16T19:03:12.460Z,20.13
2022-12-16T19:05:57.796Z,19.40
2022-12-16T19:08:43.614Z,25.03
2022-12-16T19:11:29.582Z,24.10
2022-12-16T19:14:15.492Z,28.50
2022-12-16T19:17:00.727Z,22.43
2022-12-16T19:19:46.842Z,24.87
2022-12-16T19:22:32.000Z,23.53
2022-12-16T19:25:17.831Z,17.63
2022-12-16T19:28:03.393Z,21.27
2022-12-16T19:30:49.125Z,29.67
2022-12-16T19:33:35.099Z,26.17
2022-12-16T19:36:20.866Z,23.27
2022-12-16T19:39:06.164Z,24.90
2022-12-16T19:41:52.193Z,26.53
2022-12-16T19:44:38.319Z,23.53
2022-12-16T19:47:24.143Z,24.53
2022-12-16T19:50:09.483Z,22.03
2022-12-16T19:52:55.988Z,23.57
2022-12-16T19:55:42.272Z,28.03
2022-12-16T19:58:28.062Z,29.70
2022-12-16T20:01:13.554Z,30.60
2022-12-16T20:03:59.622Z,48.63
2022-12-16T20:06:44.915Z,33.23
2022-12-16T20:09:30.691Z,27.50
2022-12-16T20:12:27.722Z,32.03
2022-12-16T20:15:13.381Z,27.30
2022-12-16T20:18:00.226Z,23.77
2022-12-16T20:20:46.295Z,25.17
2022-12-16T20:23:32.348Z,30.63
2022-12-16T20:26:20.383Z,30.83
2022-12-16T20:29:06.765Z,26.00
2022-12-16T20:31:53.365Z,28.17
2022-12-16T20:34:41.989Z,24.03
2022-12-16T20:37:27.839Z,28.07
2022-12-16T20:40:13.358Z,34.03
2022-12-16T20:42:59.219Z,25.53
2022-12-16T20:45:45.329Z,24.50
2022-12-16T20:48:35.553Z,30.80
2022-12-16T20:51:26.794Z,31.40
2022-12-16T20:54:12.876Z,25.43
2022-12-16T20:57:01.048Z,26.07
2022-12-16T20:59:46.457Z,21.80
2022-12-16T21:05:38.366Z,28.53
2022-12-16T21:08:24.540Z,21.83
2022-12-16T21:11:15.344Z,21.70
2022-12-16T21:14:00.728Z,24.47
2022-12-16T21:16:46.624Z,26.27
2022-12-16T21:19:33.837Z,18.97
2022-12-16T21:22:19.814Z,24.70
2022-12-16T21:25:05.823Z,17.70
2022-12-16T21:27:52.011Z,22.20
2022-12-16T21:30:38.355Z,23.87
2022-12-16T21:33:24.171Z,26.47
2022-12-16T21:36:13.411Z,30.10
2022-12-16T21:38:59.200Z,22.93
2022-12-16T21:41:45.480Z,21.00
2022-12-16T21:44:31.391Z,24.40
2022-12-16T21:47:17.157Z,20.73
2022-12-16T21:50:02.559Z,19.80
2022-12-16T21:52:48.055Z,20.33
2022-12-16T21:55:34.015Z,19.70
2022-12-16T21:58:19.941Z,24.23
2022-12-16T22:01:13.775Z,24.50
2022-12-16T22:03:59.689Z,23.73
2022-12-16T22:06:48.855Z,31.00
2022-12-16T22:09:35.164Z,21.13
2022-12-16T22:12:21.309Z,25.60
2022-12-16T22:15:06.694Z,24.87
2022-12-16T22:17:58.047Z,19.13
2022-12-16T22:20:45.168Z,26.38
2022-12-16T22:23:31.340Z,25.60
2022-12-16T22:26:19.315Z,24.73
2022-12-16T22:29:05.284Z,18.43
2022-12-16T22:31:50.600Z,26.47
2022-12-16T22:34:36.598Z,22.87
2022-12-16T22:37:22.453Z,22.33
2022-12-16T22:40:08.248Z,22.53
2022-12-16T22:42:56.251Z,23.27
2022-12-16T22:45:42.384Z,25.50
2022-12-16T22:48:31.538Z,21.63
2022-12-16T22:51:17.273Z,25.97
2022-12-16T22:54:02.588Z,24.73
2022-12-16T22:56:48.613Z,23.67
2022-12-16T22:59:34.527Z,24.97
2022-12-16T23:02:20.455Z,34.20
2022-12-16T23:05:06.265Z,21.00
2022-12-16T23:07:53.166Z,23.67
2022-12-16T23:10:39.290Z,19.63
2022-12-16T23:13:25.178Z,21.87
2022-12-16T23:16:10.977Z,34.03
2022-12-16T23:18:56.831Z,19.27
2022-12-16T23:21:42.743Z,24.43
2022-12-16T23:24:30.041Z,21.13
2022-12-16T23:27:16.070Z,24.77
2022-12-16T23:30:01.935Z,22.03
2022-12-16T23:32:48.026Z,27.70
2022-12-16T23:35:34.037Z,25.37
2022-12-16T23:38:25.567Z,25.70
2022-12-16T23:41:18.161Z,60.33
2022-12-16T23:44:04.767Z,55.22
2022-12-16T23:46:50.594Z,55.43
2022-12-16T23:49:35.940Z,22.30
2022-12-16T23:52:21.991Z,24.30
2022-12-16T23:55:07.376Z,26.37
2022-12-16T23:57:53.113Z,28.27
